Wildwood, Texas
Current Conditions -  °F | °C
As of 1:55 PM on Monday 22 Dec 2014 (Local Time) from KJAS Reporting Station
Scattered Clouds Scattered Clouds  
Wind Chill: 71°   Ceiling: Unl
Heat Index: 71°   Visibility: 10mi
Dew Point: 59°   Wind: 14mph
Humidity: 66%   Direction: 210°SSW
Pressure: 29.63"   Gusts: 26mph
Location:  30.5343°N, 94.442°W
Report Text: KJAS 221955Z AUTO 21012G23KT 10SM SCT030 22/15 A2963 RMK AO2 T02170150
Loading
Personal Weather Stations






























Interactive Weather Map New forecast layout! Learn more

10-Day Weather Forecast

Advertisements
Track Severe Weather on mobile